createdAt,value
2022-08-17T00:01:52.616Z,99853.34
2022-08-17T00:04:21.394Z,99876.31
2022-08-17T00:06:53.260Z,99803.88
2022-08-17T00:09:21.251Z,99845.72
2022-08-17T00:12:42.053Z,99857.16
2022-08-17T00:14:38.464Z,99865.56
2022-08-17T00:17:06.999Z,99862.75
2022-08-17T00:19:34.999Z,99863.84
2022-08-17T00:22:33.077Z,99870.03
2022-08-17T00:24:55.050Z,99857.94
2022-08-17T00:27:22.935Z,99867.31
2022-08-17T00:29:51.465Z,99838.66
2022-08-17T00:33:10.814Z,99865.78
2022-08-17T00:35:10.880Z,99859.59
2022-08-17T00:37:40.453Z,99828.75
2022-08-17T00:40:10.657Z,99853.78
2022-08-17T00:42:39.455Z,99860.06
2022-08-17T00:45:10.061Z,99845.78
2022-08-17T00:47:38.156Z,99837.41
2022-08-17T00:50:07.491Z,99848.38
2022-08-17T00:52:43.603Z,99842.56
2022-08-17T00:55:11.906Z,99651.09
2022-08-17T00:57:44.076Z,99856.38
2022-08-17T01:00:16.079Z,99855.75
2022-08-17T01:02:46.256Z,99862.56
2022-08-17T01:05:16.366Z,99852.19
2022-08-17T01:07:50.884Z,99852.44
2022-08-17T01:10:59.224Z,99849.72
2022-08-17T01:13:14.172Z,99824.47
2022-08-17T01:15:49.709Z,99846.84
2022-08-17T01:18:17.870Z,99854.63
2022-08-17T01:20:50.138Z,99840.31
2022-08-17T01:23:22.314Z,99855.09
2022-08-17T01:25:51.276Z,99854.13
2022-08-17T01:28:36.457Z,99789.88
2022-08-17T01:31:09.084Z,99856.69
2022-08-17T01:33:37.765Z,99774.34
2022-08-17T01:36:07.420Z,99838.28
2022-08-17T01:38:37.187Z,99845.97
2022-08-17T01:41:09.471Z,99823.97
2022-08-17T01:43:42.756Z,99847.63
2022-08-17T01:46:11.068Z,99841.00
2022-08-17T01:48:39.548Z,99852.13
2022-08-17T01:51:08.732Z,99831.63
2022-08-17T01:53:42.332Z,99831.50
2022-08-17T01:56:12.887Z,99859.22
2022-08-17T01:58:42.377Z,99849.47
2022-08-17T02:01:12.796Z,99835.72
2022-08-17T02:03:40.983Z,99855.25
2022-08-17T02:06:27.784Z,99771.91
2022-08-17T02:09:02.835Z,99853.16
2022-08-17T02:11:33.879Z,99854.00
2022-08-17T02:14:04.105Z,99851.84
2022-08-17T02:16:37.005Z,99854.19
2022-08-17T02:19:08.774Z,99855.63
2022-08-17T02:21:37.137Z,99747.94
2022-08-17T02:24:09.413Z,99856.56
2022-08-17T02:26:37.500Z,99847.44
2022-08-17T02:29:05.651Z,99847.72
2022-08-17T02:31:35.629Z,99829.66
2022-08-17T02:34:05.357Z,99847.25
2022-08-17T02:36:34.941Z,99848.75
2022-08-17T02:39:03.439Z,99825.66
2022-08-17T02:41:33.645Z,99853.13
2022-08-17T02:44:01.752Z,99852.63
2022-08-17T02:46:30.517Z,99843.75
2022-08-17T02:48:58.521Z,99847.66
2022-08-17T02:51:27.173Z,99813.09
2022-08-17T02:54:05.293Z,99849.72
2022-08-17T02:56:44.750Z,99848.53
2022-08-17T02:59:12.725Z,99825.19
2022-08-17T03:01:40.879Z,99846.81
2022-08-17T03:04:09.038Z,99857.22
2022-08-17T03:06:52.265Z,99826.34
2022-08-17T03:09:20.242Z,99850.31
2022-08-17T03:11:50.834Z,99848.25
2022-08-17T03:14:26.097Z,99635.53
2022-08-17T03:16:54.404Z,99845.97
2022-08-17T03:19:22.329Z,99843.84
2022-08-17T03:21:55.423Z,99844.94
2022-08-17T03:24:28.772Z,99845.41
2022-08-17T03:26:57.079Z,99845.41
2022-08-17T03:29:25.176Z,99851.69
2022-08-17T03:31:53.475Z,99854.41
2022-08-17T03:34:21.342Z,99814.03
2022-08-17T03:36:49.415Z,99835.88
2022-08-17T03:39:17.816Z,99798.31
2022-08-17T03:42:03.727Z,99839.91
2022-08-17T03:44:31.721Z,99848.38
2022-08-17T03:47:17.035Z,99856.50
2022-08-17T03:50:02.257Z,99847.75
2022-08-17T03:52:52.996Z,99846.97
2022-08-17T03:55:38.782Z,99847.09
2022-08-17T03:58:12.979Z,99842.19
2022-08-17T04:00:45.682Z,99846.97
2022-08-17T04:03:14.154Z,99849.16
2022-08-17T04:05:42.201Z,99805.69
2022-08-17T04:08:10.750Z,99832.97
2022-08-17T04:10:41.343Z,99844.63
2022-08-17T04:13:14.897Z,99848.50
2022-08-17T04:15:52.041Z,99852.19
2022-08-17T04:18:20.770Z,99849.41
2022-08-17T04:20:48.772Z,99827.84
2022-08-17T04:23:19.145Z,99830.03
2022-08-17T04:25:49.253Z,99843.72
2022-08-17T04:28:19.823Z,99853.88
2022-08-17T04:30:48.976Z,99803.72
2022-08-17T04:33:19.084Z,99856.88
2022-08-17T04:35:49.402Z,99868.34
2022-08-17T04:38:20.854Z,99860.75
2022-08-17T04:41:07.591Z,99848.59
2022-08-17T04:43:39.103Z,99858.28
2022-08-17T04:46:10.432Z,99865.22
2022-08-17T04:48:41.434Z,99871.41
2022-08-17T04:51:12.355Z,99873.47
2022-08-17T04:53:40.965Z,99869.72
2022-08-17T04:56:15.941Z,99854.00
2022-08-17T04:58:47.881Z,99879.84
2022-08-17T05:01:24.017Z,99880.41
2022-08-17T05:03:53.006Z,99880.75
2022-08-17T05:06:21.246Z,99825.03
2022-08-17T05:08:49.610Z,99885.28
2022-08-17T05:11:17.923Z,99887.38
2022-08-17T05:13:50.055Z,99893.06
2022-08-17T05:16:18.744Z,99897.78
2022-08-17T05:18:46.863Z,99902.28
2022-08-17T05:21:15.604Z,99901.38
2022-08-17T05:23:45.564Z,99912.25
2022-08-17T05:26:26.800Z,99902.47
2022-08-17T05:28:59.654Z,99867.91
2022-08-17T05:31:29.422Z,99907.59
2022-08-17T05:33:57.738Z,99899.69
2022-08-17T05:36:43.364Z,99902.69
2022-08-17T05:39:17.020Z,99906.88
2022-08-17T05:41:47.035Z,99901.97
2022-08-17T05:44:17.119Z,99893.84
2022-08-17T05:46:46.753Z,99902.22
2022-08-17T05:49:18.927Z,99908.03
2022-08-17T05:52:12.392Z,99905.44
2022-08-17T05:54:55.959Z,99835.56
2022-08-17T05:57:39.521Z,99900.63
2022-08-17T06:00:18.313Z,99902.13
2022-08-17T06:03:06.058Z,99901.50
2022-08-17T06:06:07.055Z,99900.25
2022-08-17T06:08:42.296Z,99902.97
2022-08-17T06:11:20.454Z,99885.09
2022-08-17T06:14:20.566Z,99899.66
2022-08-17T06:16:56.065Z,99904.88
2022-08-17T06:19:32.612Z,99904.88
2022-08-17T06:22:02.740Z,99900.41
2022-08-17T06:24:34.463Z,99895.25
2022-08-17T06:27:09.745Z,99888.72
2022-08-17T06:29:47.142Z,99898.50
2022-08-17T06:32:17.267Z,99881.38
2022-08-17T06:34:46.954Z,99901.13
2022-08-17T06:37:31.125Z,99897.66
2022-08-17T06:40:15.576Z,99902.59
2022-08-17T06:43:05.026Z,99902.81
2022-08-17T06:45:38.675Z,99729.88
2022-08-17T06:48:14.169Z,99900.50
2022-08-17T06:50:48.278Z,99898.19
2022-08-17T06:53:24.531Z,99903.13
2022-08-17T06:55:59.867Z,99851.31
2022-08-17T06:58:31.609Z,99904.66
2022-08-17T07:01:06.917Z,99904.28
2022-08-17T07:03:40.848Z,99886.13
2022-08-17T07:06:14.089Z,99866.84
2022-08-17T07:08:52.162Z,99904.97
2022-08-17T07:11:28.340Z,99901.03
2022-08-17T07:14:07.027Z,99894.81
2022-08-17T07:16:41.155Z,99905.38
2022-08-17T07:19:11.277Z,99910.06
2022-08-17T07:21:45.992Z,99906.69
2022-08-17T07:24:33.272Z,99830.81
2022-08-17T07:27:07.497Z,99901.31
2022-08-17T07:29:41.093Z,99897.91
2022-08-17T07:32:11.219Z,99879.50
2022-08-17T07:34:57.653Z,99893.03
2022-08-17T07:37:27.459Z,99891.91
2022-08-17T07:40:14.769Z,99805.50
2022-08-17T07:42:45.146Z,99903.53
2022-08-17T07:45:29.978Z,99907.16
2022-08-17T07:48:15.721Z,99903.81
2022-08-17T07:50:50.545Z,99868.94
2022-08-17T07:53:23.330Z,99908.66
2022-08-17T07:55:53.500Z,99908.19
2022-08-17T07:58:26.550Z,99879.56
2022-08-17T08:01:06.930Z,99911.25
2022-08-17T08:03:43.721Z,99901.25
2022-08-17T08:06:28.005Z,99907.09
2022-08-17T08:09:00.895Z,99909.75
2022-08-17T08:11:40.205Z,99892.16
2022-08-17T08:14:33.663Z,99910.84
2022-08-17T08:17:03.591Z,99909.47
2022-08-17T08:19:32.428Z,99908.31
2022-08-17T08:22:06.182Z,99911.84
2022-08-17T08:24:52.154Z,99921.06
2022-08-17T08:27:38.561Z,99919.19
2022-08-17T08:30:11.489Z,99860.47
2022-08-17T08:32:57.702Z,99920.19
2022-08-17T08:35:31.163Z,99917.06
2022-08-17T08:38:12.058Z,99880.59
2022-08-17T08:40:53.833Z,99915.63
2022-08-17T08:43:32.625Z,99918.25
2022-08-17T08:46:07.994Z,99901.00
2022-08-17T08:49:00.150Z,99881.75
2022-08-17T08:51:47.028Z,99909.19
2022-08-17T08:54:28.946Z,99909.41
2022-08-17T08:57:24.321Z,99904.91
2022-08-17T09:00:15.539Z,99913.34
2022-08-17T09:03:16.878Z,99920.00
2022-08-17T09:06:00.485Z,99909.72
2022-08-17T09:08:37.908Z,99911.28
2022-08-17T09:11:10.739Z,99873.09
2022-08-17T09:13:54.375Z,99914.16
2022-08-17T09:16:29.928Z,99911.81
2022-08-17T09:19:05.073Z,99921.16
2022-08-17T09:21:45.774Z,99912.63
2022-08-17T09:24:23.055Z,99861.13
2022-08-17T09:26:58.885Z,99897.00
2022-08-17T09:29:35.469Z,99902.34
2022-08-17T09:32:10.316Z,99904.19
2022-08-17T09:34:52.633Z,99902.81
2022-08-17T09:37:27.053Z,99903.31
2022-08-17T09:40:08.688Z,99899.31
2022-08-17T09:42:43.785Z,99899.13
2022-08-17T09:45:27.865Z,99898.28
2022-08-17T09:48:00.992Z,99855.53
2022-08-17T09:51:03.633Z,99849.59
2022-08-17T09:53:24.366Z,99893.63
2022-08-17T09:56:17.730Z,99901.53
2022-08-17T09:58:59.259Z,99896.72
2022-08-17T10:01:36.876Z,99900.72
2022-08-17T10:04:24.892Z,99898.75
2022-08-17T10:07:15.066Z,99889.28
2022-08-17T10:09:57.924Z,99874.66
2022-08-17T10:12:39.605Z,99886.88
2022-08-17T10:15:26.002Z,99854.94
2022-08-17T10:18:24.619Z,99863.88
2022-08-17T10:21:20.816Z,99878.38
2022-08-17T10:24:11.185Z,99850.47
2022-08-17T10:26:55.921Z,99872.81
2022-08-17T10:29:46.260Z,99862.94
2022-08-17T10:32:27.073Z,99866.91
2022-08-17T10:35:16.624Z,99866.06
2022-08-17T10:38:01.327Z,99871.63
2022-08-17T10:40:38.065Z,99868.31
2022-08-17T10:43:29.237Z,99789.84
2022-08-17T10:46:10.520Z,99863.09
2022-08-17T10:49:23.262Z,99868.41
2022-08-17T10:51:54.552Z,99864.50
2022-08-17T10:54:47.414Z,99869.75
2022-08-17T10:57:38.940Z,99855.84
2022-08-17T11:00:12.823Z,99860.13
2022-08-17T11:02:49.621Z,99857.31
2022-08-17T11:05:43.707Z,99845.50
2022-08-17T11:08:47.351Z,99858.63
2022-08-17T11:11:35.907Z,99848.56
2022-08-17T11:14:35.454Z,99848.94
2022-08-17T11:17:16.942Z,99841.72
2022-08-17T11:20:05.146Z,99826.31
2022-08-17T11:23:00.732Z,99838.97
2022-08-17T11:25:35.562Z,99840.56
2022-08-17T11:28:17.443Z,99849.78
2022-08-17T11:30:52.557Z,99850.47
2022-08-17T11:33:53.763Z,99852.81
2022-08-17T11:36:32.878Z,99806.63
2022-08-17T11:39:16.229Z,99838.47
2022-08-17T11:41:55.008Z,99839.53
2022-08-17T11:44:37.719Z,99828.50
2022-08-17T11:47:36.667Z,99825.19
2022-08-17T11:50:45.202Z,99840.56
2022-08-17T11:53:50.093Z,99835.94
2022-08-17T11:56:38.270Z,99850.78
2022-08-17T11:59:47.506Z,99847.28
2022-08-17T12:03:09.980Z,99851.28
2022-08-17T12:05:39.957Z,99853.28
2022-08-17T12:08:14.730Z,99850.78
2022-08-17T12:10:59.421Z,99856.53
2022-08-17T12:13:33.993Z,99857.88
2022-08-17T12:16:07.310Z,99854.16
2022-08-17T12:18:39.526Z,99845.88
2022-08-17T12:21:41.431Z,99855.88
2022-08-17T12:24:24.621Z,99854.66
2022-08-17T12:26:56.770Z,99850.41
2022-08-17T12:29:38.287Z,99837.66
2022-08-17T12:32:14.250Z,99833.63
2022-08-17T12:34:44.324Z,99831.28
2022-08-17T12:37:18.575Z,99843.44
2022-08-17T12:39:59.702Z,99826.25
2022-08-17T12:42:31.110Z,99825.84
2022-08-17T12:44:59.826Z,99847.28
2022-08-17T12:47:31.905Z,99847.63
2022-08-17T12:50:08.354Z,99840.78
2022-08-17T12:53:02.066Z,99846.88
2022-08-17T12:55:38.799Z,99806.47
2022-08-17T12:58:12.216Z,99759.09
2022-08-17T13:00:48.683Z,99830.91
2022-08-17T13:03:20.947Z,99828.31
2022-08-17T13:05:57.474Z,99744.16
2022-08-17T13:08:31.153Z,99833.31
2022-08-17T13:11:02.500Z,99824.78
2022-08-17T13:13:32.943Z,99824.94
2022-08-17T13:16:03.605Z,99812.44
2022-08-17T13:18:44.052Z,99816.25
2022-08-17T13:21:19.305Z,99819.97
2022-08-17T13:23:58.616Z,99756.59
2022-08-17T13:26:31.914Z,99831.63
2022-08-17T13:29:01.390Z,99794.63
2022-08-17T13:31:51.165Z,99828.22
2022-08-17T13:34:38.712Z,99836.09
2022-08-17T13:37:29.672Z,99831.41
2022-08-17T13:40:01.583Z,99829.06
2022-08-17T13:42:51.904Z,99826.66
2022-08-17T13:45:52.598Z,99830.56
2022-08-17T13:48:29.773Z,99829.19
2022-08-17T13:51:13.805Z,99811.53
2022-08-17T13:53:59.484Z,99825.97
2022-08-17T13:56:54.412Z,99823.09
2022-08-17T13:59:54.395Z,99785.25
2022-08-17T14:02:27.672Z,99824.44
2022-08-17T14:04:58.504Z,99832.78
2022-08-17T14:07:34.156Z,99786.00
2022-08-17T14:10:05.285Z,99837.81
2022-08-17T14:12:36.188Z,99851.31
2022-08-17T14:15:05.045Z,99836.88
2022-08-17T14:17:38.074Z,99868.53
2022-08-17T14:20:09.801Z,99871.72
2022-08-17T14:22:41.705Z,99872.56
2022-08-17T14:25:10.384Z,99860.59
2022-08-17T14:27:51.998Z,99882.25
2022-08-17T14:30:24.785Z,99831.47
2022-08-17T14:32:53.241Z,99888.94
2022-08-17T14:35:24.665Z,99890.13
2022-08-17T14:37:53.968Z,99887.28
2022-08-17T14:40:25.133Z,99888.63
2022-08-17T14:42:56.539Z,99870.53
2022-08-17T14:45:32.137Z,99762.16
2022-08-17T14:48:04.017Z,99853.03
2022-08-17T14:50:35.537Z,99807.88
2022-08-17T14:53:05.211Z,99854.09
2022-08-17T14:55:33.765Z,99862.59
2022-08-17T14:58:04.021Z,99866.00
2022-08-17T15:00:32.598Z,99863.66
2022-08-17T15:03:01.562Z,99865.63
2022-08-17T15:05:32.440Z,99854.22
2022-08-17T15:08:00.954Z,99847.75
2022-08-17T15:10:29.576Z,99860.63
2022-08-17T15:12:58.392Z,99835.16
2022-08-17T15:15:29.068Z,99859.25
2022-08-17T15:17:57.923Z,99770.72
2022-08-17T15:20:28.820Z,99848.09
2022-08-17T15:22:58.785Z,99840.56
2022-08-17T15:25:29.647Z,99840.72
2022-08-17T15:27:57.794Z,99840.38
2022-08-17T15:30:27.752Z,99837.78
2022-08-17T15:32:57.656Z,99828.69
2022-08-17T15:35:29.458Z,99806.38
2022-08-17T15:38:04.913Z,99798.84
2022-08-17T15:40:36.617Z,99809.84
2022-08-17T15:43:08.601Z,99796.63
2022-08-17T15:45:38.831Z,99802.25
2022-08-17T15:50:55.064Z,99788.66
2022-08-17T15:53:23.101Z,99791.69
2022-08-17T15:55:51.302Z,99795.06
2022-08-17T15:58:19.996Z,99777.88
2022-08-17T16:01:14.876Z,99768.06
2022-08-17T16:04:03.797Z,99765.06
2022-08-17T16:06:35.317Z,99759.75
2022-08-17T16:09:03.578Z,99761.28
2022-08-17T16:11:31.723Z,99767.09
2022-08-17T16:13:59.809Z,99732.09
2022-08-17T16:16:31.267Z,99760.72
2022-08-17T16:18:59.535Z,99762.50
2022-08-17T16:21:31.247Z,99754.66
2022-08-17T16:24:13.237Z,99708.78
2022-08-17T16:26:43.500Z,99759.13
2022-08-17T16:29:11.573Z,99756.69
2022-08-17T16:31:41.943Z,99750.16
2022-08-17T16:34:17.159Z,99701.59
2022-08-17T16:36:54.937Z,99738.34
2022-08-17T16:39:26.085Z,99701.38
2022-08-17T16:41:54.468Z,99732.25
2022-08-17T16:44:22.942Z,99747.69
2022-08-17T16:46:52.405Z,99749.81
2022-08-17T16:49:32.436Z,99751.94
2022-08-17T16:52:09.900Z,99749.25
2022-08-17T16:54:40.654Z,99694.09
2022-08-17T16:57:08.855Z,99743.69
2022-08-17T16:59:41.969Z,99749.72
2022-08-17T17:02:15.286Z,99745.56
2022-08-17T17:04:51.204Z,99686.16
2022-08-17T17:07:34.859Z,99744.06
2022-08-17T17:10:08.734Z,99722.34
2022-08-17T17:13:01.245Z,99748.06
2022-08-17T17:15:41.059Z,99747.19
2022-08-17T17:18:14.072Z,99687.03
2022-08-17T17:20:48.821Z,99676.06
2022-08-17T17:23:36.002Z,99732.81
2022-08-17T17:26:13.311Z,99697.66
2022-08-17T17:28:54.120Z,99681.03
2022-08-17T17:31:26.767Z,99769.78
2022-08-17T17:34:00.402Z,99764.81
2022-08-17T17:36:33.183Z,99777.88
2022-08-17T17:39:05.538Z,99776.50
2022-08-17T17:41:42.152Z,99755.38
2022-08-17T17:44:17.850Z,99765.31
2022-08-17T17:46:52.938Z,99770.31
2022-08-17T17:49:22.369Z,99762.97
2022-08-17T17:52:10.964Z,99780.28
2022-08-17T17:54:52.617Z,99754.94
2022-08-17T17:57:28.700Z,99595.84
2022-08-17T18:00:08.187Z,99778.59
2022-08-17T18:02:55.149Z,99775.16
2022-08-17T18:05:44.640Z,99774.44
2022-08-17T18:08:32.047Z,99738.38
2022-08-17T18:11:09.189Z,99738.28
2022-08-17T18:13:53.358Z,99747.16
2022-08-17T18:16:22.578Z,99786.22
2022-08-17T18:18:53.526Z,99783.25
2022-08-17T18:21:27.767Z,99781.81
2022-08-17T18:23:58.237Z,99773.06
2022-08-17T18:26:39.433Z,99765.28
2022-08-17T18:29:26.551Z,99791.66
2022-08-17T18:32:25.607Z,99797.19
2022-08-17T18:34:55.964Z,99793.03
2022-08-17T18:37:39.166Z,99794.69
2022-08-17T18:40:35.562Z,99793.88
2022-08-17T18:43:10.025Z,99798.88
2022-08-17T18:45:45.959Z,99800.72
2022-08-17T18:48:25.532Z,99752.63
2022-08-17T18:50:55.900Z,99761.91
2022-08-17T18:53:38.785Z,99809.81
2022-08-17T18:56:21.148Z,99780.78
2022-08-17T18:58:56.762Z,99827.75
2022-08-17T19:01:51.460Z,99801.78
2022-08-17T19:04:30.536Z,99782.75
2022-08-17T19:07:23.539Z,99812.75
2022-08-17T19:09:57.120Z,99803.44
2022-08-17T19:12:32.583Z,99823.81
2022-08-17T19:15:01.887Z,99829.13
2022-08-17T19:17:43.901Z,99822.06
2022-08-17T19:20:19.654Z,99830.53
2022-08-17T19:23:00.367Z,99814.97
2022-08-17T19:25:34.317Z,99821.97
2022-08-17T19:28:21.646Z,99825.78
2022-08-17T19:30:56.388Z,99800.06
2022-08-17T19:33:24.832Z,99726.50
2022-08-17T19:36:02.158Z,99812.03
2022-08-17T19:38:41.625Z,99819.81
2022-08-17T19:41:20.382Z,99818.97
2022-08-17T19:44:11.145Z,99813.78
2022-08-17T19:46:50.429Z,99816.41
2022-08-17T19:49:33.220Z,99829.19
2022-08-17T19:52:20.314Z,99838.09
2022-08-17T19:54:56.694Z,99829.06
2022-08-17T19:57:38.210Z,99832.47
2022-08-17T20:00:11.927Z,99834.22
2022-08-17T20:02:48.827Z,99834.78
2022-08-17T20:05:22.655Z,99837.66
2022-08-17T20:07:56.944Z,99833.91
2022-08-17T20:10:38.653Z,99842.09
2022-08-17T20:13:12.825Z,99856.75
2022-08-17T20:15:43.514Z,99856.75
2022-08-17T20:18:19.985Z,99842.25
2022-08-17T20:20:58.389Z,99877.69
2022-08-17T20:23:42.154Z,99872.19
2022-08-17T20:26:23.150Z,99858.16
2022-08-17T20:29:36.860Z,99879.69
2022-08-17T20:32:21.373Z,99839.75
2022-08-17T20:34:49.560Z,99876.97
2022-08-17T20:37:32.177Z,99876.69
2022-08-17T20:40:31.752Z,99873.34
2022-08-17T20:43:01.361Z,99871.91
2022-08-17T20:46:02.981Z,99874.16
2022-08-17T20:48:38.941Z,99813.25
2022-08-17T20:51:20.275Z,99881.94
2022-08-17T20:54:07.708Z,99822.88
2022-08-17T20:56:57.580Z,99888.31
2022-08-17T21:00:03.680Z,99878.97
2022-08-17T21:02:33.778Z,99798.03
2022-08-17T21:05:06.985Z,99892.28
2022-08-17T21:07:59.001Z,99897.06
2022-08-17T21:10:38.439Z,99886.53
2022-08-17T21:13:32.601Z,99899.66
2022-08-17T21:16:08.902Z,99888.31
2022-08-17T21:18:45.438Z,99897.28
2022-08-17T21:21:23.951Z,99810.09
2022-08-17T21:24:11.782Z,99876.97
2022-08-17T21:26:55.797Z,99889.97
2022-08-17T21:29:32.562Z,99810.69
2022-08-17T21:32:19.212Z,99880.75
2022-08-17T21:35:07.520Z,99902.00
2022-08-17T21:37:43.899Z,99899.28
2022-08-17T21:40:25.161Z,99887.03
2022-08-17T21:42:56.211Z,99901.59
2022-08-17T21:45:27.565Z,99895.69
2022-08-17T21:48:11.230Z,99824.56
2022-08-17T21:50:41.714Z,99896.50
2022-08-17T21:53:19.432Z,99894.84
2022-08-17T21:55:50.477Z,99901.13
2022-08-17T21:58:29.991Z,99879.75
2022-08-17T22:01:23.974Z,99904.50
2022-08-17T22:03:59.407Z,99878.44
2022-08-17T22:06:31.312Z,99910.16
2022-08-17T22:09:17.294Z,99925.16
2022-08-17T22:12:01.927Z,99900.25
2022-08-17T22:14:53.297Z,99924.06
2022-08-17T22:17:25.740Z,99925.25
2022-08-17T22:19:56.334Z,99934.34
2022-08-17T22:22:34.698Z,99877.75
2022-08-17T22:25:07.283Z,99935.97
2022-08-17T22:27:47.122Z,99943.56
2022-08-17T22:30:20.599Z,99887.19
2022-08-17T22:32:50.009Z,99960.97
2022-08-17T22:35:31.518Z,99935.69
2022-08-17T22:38:27.552Z,99960.97
2022-08-17T22:41:13.769Z,99875.56
2022-08-17T22:43:44.838Z,99962.69
2022-08-17T22:46:14.889Z,99967.06
2022-08-17T22:48:49.019Z,99867.19
2022-08-17T22:51:21.805Z,99979.94
2022-08-17T22:54:09.751Z,99981.59
2022-08-17T22:57:05.393Z,99939.53
2022-08-17T22:59:41.522Z,99989.13
2022-08-17T23:02:19.232Z,99981.72
2022-08-17T23:04:51.235Z,99946.72
2022-08-17T23:07:20.422Z,99980.28
2022-08-17T23:09:48.486Z,99974.50
2022-08-17T23:12:22.865Z,99978.06
2022-08-17T23:14:57.029Z,99978.53
2022-08-17T23:17:25.471Z,99976.53
2022-08-17T23:19:55.427Z,99965.41
2022-08-17T23:22:23.794Z,99877.47
2022-08-17T23:24:52.176Z,99969.63
2022-08-17T23:27:22.120Z,99959.59
2022-08-17T23:29:50.507Z,99886.34
2022-08-17T23:32:19.493Z,99962.84
2022-08-17T23:34:50.359Z,99950.03
2022-08-17T23:37:19.847Z,99944.84
2022-08-17T23:39:47.813Z,99961.47
2022-08-17T23:42:21.634Z,99922.00
2022-08-17T23:44:51.050Z,99960.63
2022-08-17T23:47:18.977Z,99919.28
2022-08-17T23:49:47.008Z,99952.63
2022-08-17T23:52:16.672Z,99946.25
2022-08-17T23:54:46.617Z,99895.13
2022-08-17T23:57:17.204Z,99925.22
2022-08-17T23:59:45.929Z,99952.03
